createdAt,value
2023-05-22T00:02:08.356Z,20.01
2023-05-22T00:04:35.250Z,20.00
2023-05-22T00:07:03.982Z,19.99
2023-05-22T00:09:30.775Z,19.85
2023-05-22T00:11:57.593Z,19.81
2023-05-22T00:14:24.582Z,19.76
2023-05-22T00:16:51.485Z,19.71
2023-05-22T00:19:21.509Z,19.55
2023-05-22T00:21:48.358Z,19.49
2023-05-22T00:24:15.206Z,19.49
2023-05-22T00:26:41.993Z,19.55
2023-05-22T00:29:09.628Z,19.32
2023-05-22T00:31:36.865Z,19.43
2023-05-22T00:34:03.810Z,19.42
2023-05-22T00:36:30.754Z,19.46
2023-05-22T00:38:57.613Z,19.35
2023-05-22T00:41:24.624Z,19.34
2023-05-22T00:43:51.741Z,19.39
2023-05-22T00:46:23.060Z,19.36
2023-05-22T00:48:50.202Z,19.31
2023-05-22T00:51:17.059Z,19.23
2023-05-22T00:53:44.637Z,19.27
2023-05-22T00:56:12.617Z,19.31
2023-05-22T00:58:39.718Z,19.25
2023-05-22T01:01:11.494Z,19.25
2023-05-22T01:03:45.179Z,19.25
2023-05-22T01:06:18.101Z,19.22
2023-05-22T01:08:44.972Z,19.13
2023-05-22T01:11:22.428Z,18.97
2023-05-22T01:13:56.922Z,18.96
2023-05-22T01:16:29.979Z,19.02
2023-05-22T01:19:23.582Z,18.87
2023-05-22T01:22:25.269Z,18.82
2023-05-22T01:25:17.078Z,18.83
2023-05-22T01:28:12.240Z,18.74
2023-05-22T01:30:41.904Z,18.67
2023-05-22T01:33:13.920Z,18.68
2023-05-22T01:35:43.634Z,18.68
2023-05-22T01:38:11.617Z,18.60
2023-05-22T01:40:39.881Z,18.50
2023-05-22T01:43:08.197Z,18.51
2023-05-22T01:45:35.118Z,18.50
2023-05-22T01:48:01.890Z,18.55
2023-05-22T01:50:28.903Z,18.60
2023-05-22T01:53:23.165Z,18.61
2023-05-22T01:56:14.793Z,18.60
2023-05-22T01:58:54.132Z,18.67
2023-05-22T02:01:26.153Z,18.60
2023-05-22T02:03:57.432Z,18.57
2023-05-22T02:06:28.766Z,18.56
2023-05-22T02:08:56.537Z,18.64
2023-05-22T02:11:27.525Z,18.66
2023-05-22T02:13:54.660Z,18.32
2023-05-22T02:16:22.808Z,18.33
2023-05-22T02:18:49.772Z,18.36
2023-05-22T02:21:16.531Z,18.40
2023-05-22T02:23:43.668Z,18.45
2023-05-22T02:26:10.785Z,18.56
2023-05-22T02:28:38.183Z,18.55
2023-05-22T02:31:05.147Z,18.52
2023-05-22T02:33:32.133Z,18.45
2023-05-22T02:35:58.999Z,18.47
2023-05-22T02:38:26.124Z,18.50
2023-05-22T02:40:53.025Z,18.40
2023-05-22T02:43:19.824Z,18.43
2023-05-22T02:45:46.719Z,18.43
2023-05-22T02:48:13.675Z,18.37
2023-05-22T02:50:40.831Z,18.40
2023-05-22T02:53:08.581Z,18.42
2023-05-22T02:55:35.561Z,18.30
2023-05-22T02:58:03.519Z,18.15
2023-05-22T03:00:30.467Z,18.07
2023-05-22T03:02:57.469Z,18.04
2023-05-22T03:05:24.237Z,17.95
2023-05-22T03:07:51.169Z,17.91
2023-05-22T03:10:18.059Z,17.92
2023-05-22T03:12:44.832Z,17.77
2023-05-22T03:15:11.768Z,17.90
2023-05-22T03:17:38.626Z,17.84
2023-05-22T03:20:06.969Z,17.89
2023-05-22T03:22:33.722Z,17.75
2023-05-22T03:25:00.738Z,17.75
2023-05-22T03:27:27.701Z,17.80
2023-05-22T03:29:54.585Z,17.76
2023-05-22T03:32:21.560Z,17.89
2023-05-22T03:34:48.979Z,17.89
2023-05-22T03:37:17.371Z,17.91
2023-05-22T03:39:44.590Z,17.98
2023-05-22T03:42:13.644Z,17.99
2023-05-22T03:44:41.309Z,18.07
2023-05-22T03:47:08.678Z,18.07
2023-05-22T03:49:36.086Z,18.02
2023-05-22T03:52:03.804Z,17.96
2023-05-22T03:54:30.589Z,17.90
2023-05-22T03:56:57.448Z,17.88
2023-05-22T03:59:24.369Z,17.60
2023-05-22T04:01:51.469Z,17.47
2023-05-22T04:04:18.419Z,17.60
2023-05-22T04:06:45.631Z,17.53
2023-05-22T04:09:12.983Z,17.41
2023-05-22T04:11:40.065Z,17.46
2023-05-22T04:14:06.993Z,17.32
2023-05-22T04:16:34.035Z,17.48
2023-05-22T04:19:04.138Z,17.59
2023-05-22T04:21:34.440Z,17.47
2023-05-22T04:24:02.716Z,17.51
2023-05-22T04:26:32.275Z,17.48
2023-05-22T04:28:59.525Z,17.48
2023-05-22T04:31:28.817Z,17.56
2023-05-22T04:33:56.302Z,17.57
2023-05-22T04:36:26.202Z,17.57
2023-05-22T04:38:54.241Z,17.67
2023-05-22T04:41:27.010Z,17.70
2023-05-22T04:43:54.632Z,17.84
2023-05-22T04:46:21.736Z,17.82
2023-05-22T04:48:48.728Z,17.94
2023-05-22T04:51:16.215Z,18.07
2023-05-22T04:53:43.111Z,18.10
2023-05-22T04:56:11.783Z,18.04
2023-05-22T04:58:40.454Z,18.15
2023-05-22T05:01:07.234Z,18.14
2023-05-22T05:03:34.826Z,18.02
2023-05-22T05:06:01.819Z,18.04
2023-05-22T05:08:28.598Z,17.78
2023-05-22T05:10:55.474Z,17.95
2023-05-22T05:13:22.271Z,17.92
2023-05-22T05:15:49.151Z,18.08
2023-05-22T05:18:16.076Z,18.00
2023-05-22T05:20:43.322Z,18.10
2023-05-22T05:23:13.365Z,17.69
2023-05-22T05:25:40.234Z,18.02
2023-05-22T05:28:11.903Z,17.97
2023-05-22T05:30:41.867Z,17.98
2023-05-22T05:33:08.961Z,18.18
2023-05-22T05:35:36.235Z,18.33
2023-05-22T05:38:06.147Z,18.16
2023-05-22T05:40:32.968Z,18.33
2023-05-22T05:42:59.885Z,18.53
2023-05-22T05:45:26.639Z,18.65
2023-05-22T05:47:53.858Z,18.69
2023-05-22T05:50:21.213Z,18.77
2023-05-22T05:52:47.999Z,18.89
2023-05-22T05:55:15.004Z,18.99
2023-05-22T05:57:42.097Z,19.09
2023-05-22T06:00:11.555Z,19.24
2023-05-22T06:02:38.468Z,19.34
2023-05-22T06:05:05.772Z,19.49
2023-05-22T06:07:32.872Z,19.58
2023-05-22T06:09:59.703Z,19.44
2023-05-22T06:12:26.796Z,19.46
2023-05-22T06:14:53.506Z,19.36
2023-05-22T06:17:20.821Z,19.54
2023-05-22T06:19:47.651Z,19.72
2023-05-22T06:22:14.489Z,19.79
2023-05-22T06:24:41.253Z,19.93
2023-05-22T06:27:08.599Z,20.00
2023-05-22T06:29:35.804Z,19.91
2023-05-22T06:32:02.698Z,19.91
2023-05-22T06:34:29.999Z,20.10
2023-05-22T06:36:57.017Z,19.83
2023-05-22T06:39:23.777Z,20.09
2023-05-22T06:41:50.607Z,20.11
2023-05-22T06:44:17.539Z,20.30
2023-05-22T06:46:44.423Z,20.53
2023-05-22T06:49:11.308Z,20.64
2023-05-22T06:51:38.317Z,20.74
2023-05-22T06:54:07.328Z,20.86
2023-05-22T06:56:37.545Z,21.02
2023-05-22T06:59:06.249Z,20.89
2023-05-22T07:01:33.437Z,20.83
2023-05-22T07:04:01.569Z,20.81
2023-05-22T07:06:28.574Z,20.53
2023-05-22T07:08:55.460Z,20.41
2023-05-22T07:11:22.543Z,20.60
2023-05-22T07:14:07.759Z,20.83
2023-05-22T07:16:34.973Z,21.10
2023-05-22T07:19:04.833Z,21.04
2023-05-22T07:21:32.645Z,20.59
2023-05-22T07:23:59.537Z,20.29
2023-05-22T07:26:27.913Z,20.46
2023-05-22T07:28:54.767Z,20.79
2023-05-22T07:31:21.605Z,21.15
2023-05-22T07:33:48.557Z,21.28
2023-05-22T07:36:16.732Z,20.94
2023-05-22T07:38:43.652Z,20.83
2023-05-22T07:41:10.747Z,20.94
2023-05-22T07:43:37.556Z,21.03
2023-05-22T07:46:06.289Z,21.19
2023-05-22T07:48:33.245Z,21.56
2023-05-22T07:51:00.179Z,21.85
2023-05-22T07:53:26.964Z,22.11
2023-05-22T07:55:53.798Z,22.06
2023-05-22T07:58:20.863Z,22.18
2023-05-22T08:00:47.724Z,22.22
2023-05-22T08:03:14.621Z,22.04
2023-05-22T08:05:41.661Z,21.62
2023-05-22T08:08:10.591Z,21.78
2023-05-22T08:13:08.558Z,22.01
2023-05-22T08:15:35.556Z,21.98
2023-05-22T08:18:02.692Z,21.68
2023-05-22T08:20:29.643Z,21.71
2023-05-22T08:22:56.980Z,21.85
2023-05-22T08:25:23.991Z,21.53
2023-05-22T08:27:51.042Z,21.72
2023-05-22T08:30:18.010Z,21.87
2023-05-22T08:32:44.763Z,22.14
2023-05-22T08:35:11.654Z,22.19
2023-05-22T08:37:38.500Z,22.35
2023-05-22T08:40:06.152Z,22.48
2023-05-22T08:42:33.000Z,22.59
2023-05-22T08:45:01.323Z,22.82
2023-05-22T08:47:28.758Z,22.51
2023-05-22T08:49:58.419Z,22.26
2023-05-22T08:52:37.514Z,22.57
2023-05-22T08:55:05.744Z,22.89
2023-05-22T08:57:34.335Z,22.95
2023-05-22T09:00:01.299Z,23.10
2023-05-22T09:02:29.021Z,23.13
2023-05-22T09:04:57.389Z,23.30
2023-05-22T09:07:25.123Z,23.28
2023-05-22T09:09:52.032Z,23.20
2023-05-22T09:12:18.930Z,23.35
2023-05-22T09:14:48.868Z,23.56
2023-05-22T09:17:16.660Z,23.62
2023-05-22T09:19:47.737Z,23.75
2023-05-22T09:22:14.713Z,23.81
2023-05-22T09:24:42.581Z,24.17
2023-05-22T09:27:11.366Z,24.31
2023-05-22T09:29:51.629Z,24.73
2023-05-22T09:32:19.485Z,25.03
2023-05-22T09:34:46.924Z,24.80
2023-05-22T09:37:15.073Z,24.61
2023-05-22T09:39:45.037Z,24.55
2023-05-22T09:42:15.524Z,24.45
2023-05-22T09:44:45.385Z,24.31
2023-05-22T09:47:12.466Z,24.49
2023-05-22T09:49:43.611Z,24.87
2023-05-22T09:52:15.232Z,25.15
2023-05-22T09:54:55.575Z,25.15
2023-05-22T09:57:25.897Z,24.99
2023-05-22T09:59:58.241Z,24.91
2023-05-22T10:02:26.629Z,24.56
2023-05-22T10:04:54.989Z,24.80
2023-05-22T10:07:25.221Z,25.03
2023-05-22T10:10:00.048Z,24.83
2023-05-22T10:12:30.378Z,25.07
2023-05-22T10:14:57.897Z,25.24
2023-05-22T10:17:26.677Z,25.46
2023-05-22T10:19:55.700Z,25.50
2023-05-22T10:22:23.637Z,25.58
2023-05-22T10:24:52.369Z,26.02
2023-05-22T10:27:19.203Z,25.78
2023-05-22T10:29:58.871Z,25.52
2023-05-22T10:32:41.084Z,25.57
2023-05-22T10:35:20.011Z,24.93
2023-05-22T10:38:03.833Z,25.47
2023-05-22T10:40:33.799Z,25.84
2023-05-22T10:43:02.980Z,25.92
2023-05-22T10:45:30.832Z,26.21
2023-05-22T10:48:08.657Z,26.65
2023-05-22T10:50:36.643Z,26.54
2023-05-22T10:53:26.265Z,26.53
2023-05-22T10:55:55.600Z,26.27
2023-05-22T10:58:32.413Z,26.54
2023-05-22T11:01:10.166Z,26.35
2023-05-22T11:03:57.633Z,26.28
2023-05-22T11:07:02.286Z,26.82
2023-05-22T11:09:32.969Z,27.29
2023-05-22T11:12:25.470Z,27.60
2023-05-22T11:15:19.240Z,27.52
2023-05-22T11:17:51.967Z,26.90
2023-05-22T11:20:24.947Z,26.49
2023-05-22T11:23:08.270Z,26.34
2023-05-22T11:25:37.606Z,26.74
2023-05-22T11:28:06.377Z,27.11
2023-05-22T11:30:34.951Z,27.31
2023-05-22T11:33:02.430Z,27.59
2023-05-22T11:35:29.710Z,27.94
2023-05-22T11:37:57.217Z,27.29
2023-05-22T11:40:26.082Z,27.09
2023-05-22T11:42:54.387Z,27.28
2023-05-22T11:45:21.898Z,27.49
2023-05-22T11:47:49.783Z,27.55
2023-05-22T11:50:29.348Z,27.23
2023-05-22T11:53:04.037Z,27.65
2023-05-22T11:55:33.407Z,27.53
2023-05-22T11:58:02.493Z,27.62
2023-05-22T12:00:31.290Z,27.73
2023-05-22T12:03:01.604Z,27.26
2023-05-22T12:05:28.470Z,26.65
2023-05-22T12:07:55.469Z,26.96
2023-05-22T12:10:22.460Z,27.21
2023-05-22T12:12:49.485Z,26.98
2023-05-22T12:15:20.706Z,27.05
2023-05-22T12:17:47.748Z,27.03
2023-05-22T12:20:14.755Z,27.02
2023-05-22T12:22:43.277Z,27.55
2023-05-22T12:25:16.537Z,28.07
2023-05-22T12:27:49.154Z,28.15
2023-05-22T12:30:17.156Z,27.53
2023-05-22T12:32:49.061Z,27.21
2023-05-22T12:35:17.486Z,26.73
2023-05-22T12:37:52.225Z,25.91
2023-05-22T12:40:19.674Z,25.42
2023-05-22T12:42:48.284Z,25.31
2023-05-22T12:45:15.156Z,25.15
2023-05-22T12:47:42.095Z,25.44
2023-05-22T12:50:09.539Z,25.91
2023-05-22T12:52:36.474Z,26.30
2023-05-22T12:55:03.376Z,27.05
2023-05-22T12:57:30.164Z,27.90
2023-05-22T12:59:56.931Z,28.71
2023-05-22T13:02:23.808Z,29.43
2023-05-22T13:04:50.810Z,29.79
2023-05-22T13:07:17.807Z,29.73
2023-05-22T13:09:44.689Z,30.21
2023-05-22T13:12:11.666Z,30.13
2023-05-22T13:14:40.625Z,30.90
2023-05-22T13:17:07.934Z,30.87
2023-05-22T13:19:35.155Z,30.01
2023-05-22T13:22:02.062Z,30.52
2023-05-22T13:24:29.216Z,30.37
2023-05-22T13:26:55.970Z,30.98
2023-05-22T13:29:22.778Z,30.75
2023-05-22T13:31:49.665Z,29.18
2023-05-22T13:34:16.536Z,28.01
2023-05-22T13:36:43.737Z,27.17
2023-05-22T13:39:12.961Z,27.17
2023-05-22T13:41:48.770Z,27.25
2023-05-22T13:44:15.699Z,26.56
2023-05-22T13:46:42.655Z,26.07
2023-05-22T13:49:09.613Z,26.04
2023-05-22T13:51:36.598Z,26.50
2023-05-22T13:54:03.779Z,26.57
2023-05-22T13:56:31.230Z,27.08
2023-05-22T13:58:58.239Z,26.78
2023-05-22T14:01:25.204Z,27.39
2023-05-22T14:03:52.297Z,27.81
2023-05-22T14:06:19.104Z,27.68
2023-05-22T14:08:45.889Z,27.56
2023-05-22T14:11:12.853Z,27.39
2023-05-22T14:13:40.013Z,27.39
2023-05-22T14:16:06.945Z,27.63
2023-05-22T14:18:33.814Z,27.40
2023-05-22T14:21:02.607Z,27.05
2023-05-22T14:23:30.861Z,26.55
2023-05-22T14:25:57.985Z,26.04
2023-05-22T14:28:25.179Z,26.50
2023-05-22T14:30:52.005Z,27.16
2023-05-22T14:33:18.855Z,27.35
2023-05-22T14:35:46.127Z,27.03
2023-05-22T14:38:13.383Z,26.93
2023-05-22T14:40:40.209Z,27.36
2023-05-22T14:43:07.213Z,28.00
2023-05-22T14:45:34.132Z,27.52
2023-05-22T14:48:00.998Z,28.46
2023-05-22T14:50:27.779Z,28.92
2023-05-22T14:52:54.701Z,29.80
2023-05-22T14:55:22.185Z,29.94
2023-05-22T14:57:49.202Z,30.36
2023-05-22T15:00:16.661Z,30.60
2023-05-22T15:02:43.580Z,29.77
2023-05-22T15:05:10.796Z,29.79
2023-05-22T15:10:08.703Z,28.21
2023-05-22T15:12:35.541Z,28.66
2023-05-22T15:15:02.238Z,29.05
2023-05-22T15:17:29.132Z,29.45
2023-05-22T15:19:56.091Z,29.19
2023-05-22T15:22:23.102Z,27.87
2023-05-22T15:25:05.472Z,27.70
2023-05-22T15:27:34.741Z,27.94
2023-05-22T15:30:02.798Z,28.36
2023-05-22T15:32:30.905Z,28.72
2023-05-22T15:34:57.722Z,28.96
2023-05-22T15:37:24.843Z,29.40
2023-05-22T15:39:51.647Z,28.85
2023-05-22T15:42:18.439Z,29.04
2023-05-22T15:44:45.863Z,29.13
2023-05-22T15:47:12.721Z,28.73
2023-05-22T15:49:39.507Z,28.86
2023-05-22T15:52:06.632Z,28.39
2023-05-22T15:54:33.755Z,27.93
2023-05-22T15:57:00.540Z,28.16
2023-05-22T15:59:27.320Z,28.59
2023-05-22T16:01:54.152Z,28.59
2023-05-22T16:04:21.039Z,28.30
2023-05-22T16:06:48.047Z,28.10
2023-05-22T16:09:18.511Z,28.32
2023-05-22T16:11:45.640Z,28.38
2023-05-22T16:14:12.617Z,28.08
2023-05-22T16:16:39.543Z,27.59
2023-05-22T16:19:06.735Z,26.44
2023-05-22T16:21:33.539Z,26.75
2023-05-22T16:24:00.432Z,25.92
2023-05-22T16:26:27.343Z,25.96
2023-05-22T16:28:54.538Z,26.05
2023-05-22T16:31:22.434Z,26.49
2023-05-22T16:33:49.547Z,25.71
2023-05-22T16:36:16.516Z,25.78
2023-05-22T16:38:43.393Z,25.91
2023-05-22T16:41:10.243Z,25.66
2023-05-22T16:43:38.345Z,25.27
2023-05-22T16:46:05.292Z,24.77
2023-05-22T16:48:32.186Z,24.87
2023-05-22T16:50:59.257Z,24.79
2023-05-22T16:53:26.093Z,25.36
2023-05-22T16:55:52.957Z,25.69
2023-05-22T16:58:19.681Z,25.13
2023-05-22T17:00:48.313Z,24.90
2023-05-22T17:03:15.407Z,25.33
2023-05-22T17:05:42.870Z,25.37
2023-05-22T17:08:10.202Z,25.39
2023-05-22T17:10:37.359Z,25.37
2023-05-22T17:13:04.139Z,25.43
2023-05-22T17:15:31.251Z,25.67
2023-05-22T17:17:58.256Z,25.95
2023-05-22T17:20:25.296Z,25.95
2023-05-22T17:22:52.793Z,25.98
2023-05-22T17:25:19.679Z,25.86
2023-05-22T17:27:47.225Z,26.16
2023-05-22T17:30:14.381Z,26.46
2023-05-22T17:32:42.178Z,26.56
2023-05-22T17:35:11.957Z,26.59
2023-05-22T17:37:39.247Z,26.43
2023-05-22T17:40:06.797Z,26.08
2023-05-22T17:42:33.787Z,26.23
2023-05-22T17:45:00.715Z,26.54
2023-05-22T17:47:27.757Z,26.68
2023-05-22T17:49:54.663Z,26.27
2023-05-22T17:52:21.468Z,26.10
2023-05-22T17:54:50.125Z,25.29
2023-05-22T17:57:17.230Z,25.53
2023-05-22T17:59:44.309Z,25.77
2023-05-22T18:02:11.451Z,25.22
2023-05-22T18:04:38.217Z,25.53
2023-05-22T18:07:05.519Z,25.81
2023-05-22T18:09:32.869Z,25.98
2023-05-22T18:12:01.738Z,25.54
2023-05-22T18:14:28.534Z,25.66
2023-05-22T18:16:55.648Z,25.95
2023-05-22T18:19:22.490Z,26.12
2023-05-22T18:21:49.552Z,26.20
2023-05-22T18:24:16.506Z,26.03
2023-05-22T18:26:43.246Z,25.10
2023-05-22T18:29:10.640Z,24.79
2023-05-22T18:31:37.410Z,24.18
2023-05-22T18:34:04.352Z,24.17
2023-05-22T18:36:31.906Z,23.73
2023-05-22T18:38:58.756Z,23.42
2023-05-22T18:41:26.472Z,23.18
2023-05-22T18:43:53.469Z,23.03
2023-05-22T18:46:20.620Z,22.94
2023-05-22T18:48:47.596Z,22.67
2023-05-22T18:51:16.655Z,22.69
2023-05-22T18:53:43.467Z,22.79
2023-05-22T18:56:10.419Z,22.56
2023-05-22T18:58:41.463Z,22.66
2023-05-22T19:01:08.618Z,22.34
2023-05-22T19:03:35.999Z,22.15
2023-05-22T19:06:02.819Z,22.38
2023-05-22T19:08:31.361Z,22.48
2023-05-22T19:11:01.523Z,22.54
2023-05-22T19:13:29.480Z,22.06
2023-05-22T19:15:57.428Z,21.95
2023-05-22T19:18:24.882Z,21.91
2023-05-22T19:20:51.702Z,21.87
2023-05-22T19:23:18.894Z,21.80
2023-05-22T19:25:45.798Z,21.92
2023-05-22T19:28:12.674Z,22.18
2023-05-22T19:30:39.725Z,22.37
2023-05-22T19:33:08.988Z,22.59
2023-05-22T19:35:36.229Z,22.71
2023-05-22T19:38:03.058Z,22.61
2023-05-22T19:40:30.038Z,22.72
2023-05-22T19:42:57.088Z,22.79
2023-05-22T19:45:26.159Z,22.90
2023-05-22T19:47:53.096Z,22.96
2023-05-22T19:50:20.165Z,23.07
2023-05-22T19:52:47.360Z,23.05
2023-05-22T19:55:14.096Z,22.98
2023-05-22T19:57:44.346Z,22.95
2023-05-22T20:00:12.289Z,22.90
2023-05-22T20:02:40.056Z,22.74
2023-05-22T20:05:13.082Z,22.88
2023-05-22T20:07:40.489Z,22.87
2023-05-22T20:10:10.321Z,22.94
2023-05-22T20:12:38.122Z,23.01
2023-05-22T20:15:07.088Z,23.08
2023-05-22T20:17:34.550Z,23.16
2023-05-22T20:20:01.453Z,23.16
2023-05-22T20:22:28.428Z,23.09
2023-05-22T20:24:55.263Z,23.08
2023-05-22T20:27:22.215Z,22.83
2023-05-22T20:29:51.999Z,22.88
2023-05-22T20:32:18.769Z,22.89
2023-05-22T20:34:46.920Z,22.61
2023-05-22T20:37:14.503Z,21.94
2023-05-22T20:39:42.075Z,21.39
2023-05-22T20:42:09.464Z,21.13
2023-05-22T20:44:36.748Z,21.48
2023-05-22T20:47:04.207Z,21.60
2023-05-22T20:49:34.954Z,21.58
2023-05-22T20:52:02.908Z,21.31
2023-05-22T20:54:34.274Z,21.10
2023-05-22T20:57:01.814Z,20.88
2023-05-22T20:59:29.220Z,21.14
2023-05-22T21:01:59.548Z,21.35
2023-05-22T21:04:26.611Z,21.51
2023-05-22T21:06:53.580Z,21.65
2023-05-22T21:09:20.451Z,21.39
2023-05-22T21:11:47.462Z,21.19
2023-05-22T21:14:14.749Z,21.21
2023-05-22T21:16:41.682Z,21.01
2023-05-22T21:19:08.575Z,20.71
2023-05-22T21:21:41.594Z,20.36
2023-05-22T21:24:11.831Z,20.05
2023-05-22T21:26:38.842Z,19.67
2023-05-22T21:29:06.018Z,19.93
2023-05-22T21:31:35.378Z,20.18
2023-05-22T21:34:02.709Z,20.18
2023-05-22T21:36:29.647Z,19.93
2023-05-22T21:38:57.858Z,19.81
2023-05-22T21:41:24.672Z,19.79
2023-05-22T21:43:51.482Z,19.95
2023-05-22T21:46:18.361Z,19.79
2023-05-22T21:48:45.121Z,19.64
2023-05-22T21:51:11.985Z,19.31
2023-05-22T21:53:38.835Z,19.06
2023-05-22T21:56:05.759Z,18.55
2023-05-22T21:58:32.594Z,18.45
2023-05-22T22:00:59.390Z,18.26
2023-05-22T22:03:26.371Z,18.42
2023-05-22T22:05:53.242Z,18.71
2023-05-22T22:08:19.959Z,19.12
2023-05-22T22:10:46.686Z,19.44
2023-05-22T22:13:13.605Z,19.66
2023-05-22T22:15:40.391Z,19.66
2023-05-22T22:18:07.199Z,19.64
2023-05-22T22:23:06.631Z,19.95
2023-05-22T22:25:33.901Z,19.88
2023-05-22T22:28:00.950Z,19.94
2023-05-22T22:30:27.894Z,20.08
2023-05-22T22:32:54.789Z,20.23
2023-05-22T22:35:21.593Z,20.25
2023-05-22T22:37:48.472Z,20.26
2023-05-22T22:40:16.908Z,20.16
2023-05-22T22:42:45.265Z,20.35
2023-05-22T22:45:12.258Z,20.38
2023-05-22T22:47:39.479Z,20.31
2023-05-22T22:50:07.454Z,20.44
2023-05-22T22:52:34.493Z,20.42
2023-05-22T22:55:02.017Z,20.29
2023-05-22T22:57:28.967Z,20.24
2023-05-22T22:59:56.155Z,20.39
2023-05-22T23:02:23.066Z,20.30
2023-05-22T23:04:50.049Z,20.43
2023-05-22T23:07:16.842Z,20.27
2023-05-22T23:09:43.636Z,20.29
2023-05-22T23:12:10.708Z,20.16
2023-05-22T23:14:37.902Z,20.14
2023-05-22T23:17:04.752Z,20.13
2023-05-22T23:19:31.818Z,20.08
2023-05-22T23:21:58.618Z,19.86
2023-05-22T23:24:25.495Z,19.99
2023-05-22T23:26:52.996Z,19.85
2023-05-22T23:29:20.122Z,19.87
2023-05-22T23:31:47.613Z,19.82
2023-05-22T23:34:14.642Z,19.72
2023-05-22T23:36:41.418Z,19.55
2023-05-22T23:39:08.362Z,19.54
2023-05-22T23:41:35.676Z,19.40
2023-05-22T23:44:02.767Z,19.55
2023-05-22T23:46:29.831Z,19.16
2023-05-22T23:48:56.751Z,18.57
2023-05-22T23:51:23.443Z,18.32
2023-05-22T23:53:50.296Z,18.29
2023-05-22T23:56:17.215Z,18.48
2023-05-22T23:58:43.956Z,18.60
